createdAt,value
2022-11-01T00:01:44.642Z,12.40
2022-11-01T00:32:01.239Z,12.30
2022-11-01T01:02:44.464Z,12.00
2022-11-01T01:32:51.474Z,11.70
2022-11-01T01:58:32.781Z,11.50
2022-11-01T02:28:31.014Z,11.30
2022-11-01T02:49:09.257Z,11.10
2022-11-01T03:14:36.887Z,11.10
2022-11-01T03:59:45.616Z,10.80
2022-11-01T04:25:35.443Z,10.70
2022-11-01T04:55:27.069Z,10.60
2022-11-01T05:20:47.890Z,10.90
2022-11-01T05:41:05.614Z,11.00
2022-11-01T06:01:58.901Z,11.20
2022-11-01T06:32:19.027Z,11.30
2022-11-01T07:02:33.285Z,11.20
2022-11-01T07:23:06.433Z,11.40
2022-11-01T07:48:27.927Z,11.50
2022-11-01T08:03:30.636Z,11.50
2022-11-01T08:43:38.043Z,11.70
2022-11-01T09:14:02.074Z,11.90
2022-11-01T09:49:22.437Z,12.20
2022-11-01T10:19:53.056Z,12.70
2022-11-01T10:50:19.839Z,12.30
2022-11-01T11:15:36.572Z,12.60
2022-11-01T11:41:00.721Z,12.30
2022-11-01T12:06:49.959Z,12.20
2022-11-01T12:27:06.860Z,12.40
2022-11-01T13:07:24.313Z,12.10
2022-11-01T13:28:07.537Z,12.00
2022-11-01T14:08:49.385Z,11.60
2022-11-01T14:39:07.102Z,11.50
2022-11-01T15:09:26.303Z,11.40
2022-11-01T16:10:33.764Z,11.50
2022-11-01T17:06:11.858Z,11.50
2022-11-01T17:31:26.318Z,11.50
2022-11-01T19:12:37.919Z,11.00
2022-11-01T19:43:35.914Z,10.90
2022-11-01T20:13:31.557Z,10.90
2022-11-01T20:44:04.190Z,11.00
2022-11-01T21:09:43.792Z,11.10
2022-11-01T21:19:48.821Z,11.10
2022-11-01T22:00:31.251Z,11.20
2022-11-01T22:45:37.379Z,11.10
2022-11-01T23:06:33.668Z,10.90
